Terminal Aerodrome Forecast
Issued by NWS Memphis, TN

Home | Current Version | Previous Version | Text Only | Print | Product List | Glossary On
Versions: 1 2 3 4 5 6 7 8 9 10 11 12 13 14 15 16 17 18
000
FTUS44 KMEG 290530
TAFJBR
TAF
KJBR 290530Z 2906/3006 16006KT P6SM SCT007 BKN250
      TEMPO 2909/2913 5SM BR OVC007
     FM291400 19006KT P6SM SCT007 BKN250
     FM291600 20008KT P6SM VCTS BKN035CB
     FM300000 17006KT P6SM OVC250=

USA.gov is the U.S. government's official web portal to all federal, state and local government web resources and services.